Time;durP1;ratioP1;P1;durP2;ratioP2;P2;SDS_P1;SDS_P2;PMS_P1;PMS_P2;Temp;Humidity;BMP_temperature;BMP_pressure;BME280_temperature;BME280_humidity;BME280_pressure;Samples;Min_cycle;Max_cycle;Signal;HPM_P1;HPM_P2
2023/12/01 00:01:55;;;;;;;34.43;15.43;;;;;2.10;94590.00;;;;8397741;28;20225;-74
2023/12/01 00:05:58;;;;;;;33.37;14.47;;;;;2.10;94595.00;;;;8397512;28;20188;-74
2023/12/01 00:10:02;;;;;;;34.63;15.07;;;;;2.10;94585.00;;;;8397184;28;20204;-74
2023/12/01 00:14:05;;;;;;;29.23;14.07;;;;;2.10;94604.00;;;;8397735;28;20198;-74
2023/12/01 00:18:09;;;;;;;34.57;15.70;;;;;2.10;94592.00;;;;8397867;28;20241;-74
2023/12/01 00:22:13;;;;;;;36.30;15.20;;;;;2.10;94605.00;;;;8396704;28;20256;-74
2023/12/01 00:26:16;;;;;;;37.00;15.87;;;;;2.10;94609.00;;;;8398790;28;20276;-74
2023/12/01 00:30:19;;;;;;;36.17;15.47;;;;;2.10;94604.00;;;;8396903;28;20237;-74
2023/12/01 00:34:24;;;;;;;30.43;14.47;;;;;2.10;94610.00;;;;8397447;28;20206;-74
2023/12/01 00:38:27;;;;;;;33.07;14.67;;;;;2.20;94599.00;;;;8396891;28;20589;-74
2023/12/01 00:42:30;;;;;;;34.87;15.50;;;;;2.10;94609.00;;;;8396400;28;20264;-74
2023/12/01 00:46:34;;;;;;;34.90;15.57;;;;;2.20;94609.00;;;;8397141;28;20222;-74
2023/12/01 00:50:40;;;;;;;33.90;15.47;;;;;2.20;94605.00;;;;8395917;28;20531;-74
2023/12/01 00:54:43;;;;;;;31.53;14.40;;;;;2.20;94585.00;;;;8397355;28;20183;-74
2023/12/01 00:58:46;;;;;;;30.87;13.77;;;;;2.20;94591.00;;;;8396943;28;20195;-74
2023/12/01 01:02:50;;;;;;;28.10;13.80;;;;;2.20;94595.00;;;;8396694;28;20222;-74
2023/12/01 01:06:56;;;;;;;30.67;14.57;;;;;2.10;94590.00;;;;8397186;28;20220;-74
2023/12/01 01:10:59;;;;;;;32.27;15.43;;;;;2.10;94603.00;;;;8399399;28;20186;-74
2023/12/01 01:15:03;;;;;;;30.70;13.97;;;;;2.10;94621.00;;;;8402588;28;20253;-74
2023/12/01 01:19:07;;;;;;;32.77;14.53;;;;;2.10;94601.00;;;;8402626;28;20194;-74
2023/12/01 01:23:11;;;;;;;34.20;13.77;;;;;2.10;94591.00;;;;8402936;28;20601;-74
2023/12/01 01:27:14;;;;;;;34.43;14.70;;;;;2.10;94577.00;;;;8402295;28;20608;-74
2023/12/01 01:31:18;;;;;;;33.27;14.87;;;;;2.10;94590.00;;;;8401713;28;20226;-74
2023/12/01 01:35:21;;;;;;;38.63;15.67;;;;;2.10;94587.00;;;;8399418;28;20612;-73
2023/12/01 01:39:26;;;;;;;35.47;15.10;;;;;2.10;94580.00;;;;8402031;28;20238;-74
2023/12/01 01:43:29;;;;;;;34.50;15.43;;;;;2.10;94592.00;;;;8400398;28;20272;-73
2023/12/01 01:47:33;;;;;;;31.60;14.13;;;;;2.10;94589.00;;;;8400765;28;20302;-73
2023/12/01 01:51:37;;;;;;;30.90;14.60;;;;;2.20;94587.00;;;;8402698;28;20644;-74
2023/12/01 01:55:41;;;;;;;31.53;14.60;;;;;2.20;94593.00;;;;8401202;28;20529;-73
2023/12/01 01:59:44;;;;;;;28.90;13.33;;;;;2.20;94603.00;;;;8401164;28;20202;-73
2023/12/01 02:03:48;;;;;;;34.43;15.00;;;;;2.10;94587.00;;;;8401556;28;20339;-74
2023/12/01 02:07:52;;;;;;;31.57;14.73;;;;;2.10;94592.00;;;;8400885;28;20693;-74
2023/12/01 02:11:56;;;;;;;33.00;14.80;;;;;2.10;94589.00;;;;8401471;28;20198;-73
2023/12/01 02:16:03;;;;;;;30.97;14.63;;;;;2.20;94594.00;;;;8400736;28;20628;-73
2023/12/01 02:20:14;;;;;;;30.97;14.33;;;;;2.10;94602.00;;;;8401376;28;20282;-73
2023/12/01 02:24:20;;;;;;;29.73;13.90;;;;;2.10;94593.00;;;;8399961;28;20187;-74
2023/12/01 02:28:23;;;;;;;30.37;14.80;;;;;2.20;94599.00;;;;8399767;28;20268;-74
2023/12/01 02:32:26;;;;;;;33.63;14.87;;;;;2.20;94596.00;;;;8398448;28;20194;-74
2023/12/01 02:36:30;;;;;;;32.17;14.73;;;;;2.20;94608.00;;;;8398751;28;20218;-74
2023/12/01 02:40:34;;;;;;;28.63;13.80;;;;;2.20;94614.00;;;;8399457;28;20233;-74
2023/12/01 02:44:37;;;;;;;33.90;13.93;;;;;2.00;94607.00;;;;8399329;28;20252;-73
2023/12/01 02:48:41;;;;;;;31.30;13.07;;;;;1.90;94597.00;;;;8399575;28;20306;-73
2023/12/01 02:52:44;;;;;;;32.00;12.57;;;;;1.80;94612.00;;;;8400147;28;20212;-73
2023/12/01 02:56:48;;;;;;;31.93;13.50;;;;;1.80;94616.00;;;;8399390;28;20285;-74
2023/12/01 03:00:52;;;;;;;39.47;14.43;;;;;1.80;94615.00;;;;8399083;28;20287;-74
2023/12/01 03:04:55;;;;;;;36.77;14.83;;;;;1.80;94608.00;;;;8416603;23;20370;-73
2023/12/01 03:08:58;;;;;;;33.53;14.87;;;;;1.90;94615.00;;;;8391951;28;20232;-74
2023/12/01 03:13:03;;;;;;;32.53;14.07;;;;;2.00;94613.00;;;;8390920;28;20299;-73
2023/12/01 03:17:06;;;;;;;35.40;14.67;;;;;2.00;94613.00;;;;8394614;28;20572;-73
2023/12/01 03:21:12;;;;;;;30.40;14.13;;;;;2.00;94611.00;;;;8392164;28;20413;-74
2023/12/01 03:25:17;;;;;;;31.63;13.97;;;;;2.00;94600.00;;;;8391420;28;20265;-74
2023/12/01 03:29:22;;;;;;;29.97;14.37;;;;;2.00;94611.00;;;;8387465;28;20227;-73
2023/12/01 03:33:25;;;;;;;31.30;14.53;;;;;2.00;94619.00;;;;8388046;28;20280;-74
2023/12/01 03:37:28;;;;;;;35.43;14.40;;;;;1.90;94610.00;;;;8392274;28;20883;-74
2023/12/01 03:41:31;;;;;;;36.97;14.67;;;;;1.80;94613.00;;;;8391392;28;20202;-74
2023/12/01 03:45:36;;;;;;;38.63;14.90;;;;;1.80;94611.00;;;;8390503;28;20310;-74
2023/12/01 03:49:39;;;;;;;40.20;16.43;;;;;1.80;94616.00;;;;8388069;28;20229;-72
2023/12/01 03:53:42;;;;;;;38.87;15.77;;;;;1.80;94612.00;;;;8390412;28;20297;-72
2023/12/01 03:57:46;;;;;;;46.30;17.47;;;;;1.90;94616.00;;;;8390285;28;20281;-72
2023/12/01 04:01:50;;;;;;;39.23;17.23;;;;;1.90;94616.00;;;;8384093;28;20629;-72
2023/12/01 04:05:54;;;;;;;40.73;17.50;;;;;2.00;94599.00;;;;8358369;28;20204;-73
2023/12/01 04:09:57;;;;;;;38.93;17.33;;;;;2.00;94595.00;;;;8360438;28;20769;-72
2023/12/01 04:14:00;;;;;;;36.50;15.23;;;;;2.00;94596.00;;;;8356661;28;20672;-73
2023/12/01 04:18:07;;;;;;;35.87;15.77;;;;;1.90;94597.00;;;;8361343;28;20204;-72
2023/12/01 04:22:10;;;;;;;39.50;16.07;;;;;1.90;94604.00;;;;8358916;28;20215;-72
2023/12/01 04:26:14;;;;;;;47.43;18.93;;;;;1.80;94603.00;;;;8359982;28;20625;-73
2023/12/01 04:30:17;;;;;;;39.13;16.27;;;;;1.80;94608.00;;;;8373905;28;20741;-74
2023/12/01 04:34:22;;;;;;;43.00;16.87;;;;;1.80;94605.00;;;;8396561;28;20242;-74
2023/12/01 04:38:25;;;;;;;39.60;16.33;;;;;1.90;94606.00;;;;8395782;28;20268;-74
2023/12/01 04:42:28;;;;;;;42.77;17.37;;;;;1.90;94612.00;;;;8397623;28;20222;-74
2023/12/01 04:46:31;;;;;;;41.03;16.60;;;;;1.90;94604.00;;;;8399270;28;20285;-73
2023/12/01 04:50:40;;;;;;;44.37;18.93;;;;;1.90;94611.00;;;;8401115;28;20228;-73
2023/12/01 04:54:43;;;;;;;44.87;17.80;;;;;2.00;94610.00;;;;8399644;28;20183;-74
2023/12/01 04:58:47;;;;;;;36.63;16.60;;;;;2.00;94603.00;;;;8395441;28;20194;-73
2023/12/01 05:02:51;;;;;;;46.07;18.03;;;;;2.00;94604.00;;;;8403338;28;20681;-75
2023/12/01 05:06:56;;;;;;;49.90;18.17;;;;;2.00;94597.00;;;;8402327;28;20221;-75
2023/12/01 05:10:59;;;;;;;42.13;17.40;;;;;2.00;94591.00;;;;8402086;28;20229;-75
2023/12/01 05:15:02;;;;;;;44.77;18.63;;;;;2.00;94610.00;;;;8403163;28;20290;-76
2023/12/01 05:19:06;;;;;;;43.47;17.57;;;;;1.90;94608.00;;;;8402141;28;20548;-75
2023/12/01 05:23:10;;;;;;;43.40;17.40;;;;;1.90;94605.00;;;;8401673;28;20565;-75
2023/12/01 05:27:14;;;;;;;38.13;16.43;;;;;1.90;94616.00;;;;8402374;28;20215;-75
2023/12/01 05:31:17;;;;;;;37.37;15.03;;;;;1.90;94634.00;;;;8399308;28;20325;-74
2023/12/01 05:35:22;;;;;;;42.93;17.13;;;;;2.00;94631.00;;;;8398679;28;20285;-75
2023/12/01 05:39:27;;;;;;;44.03;17.70;;;;;2.00;94629.00;;;;8402388;28;20544;-77
2023/12/01 05:43:30;;;;;;;43.53;17.73;;;;;2.10;94639.00;;;;8402042;28;20225;-76
2023/12/01 05:47:33;;;;;;;41.10;16.53;;;;;2.20;94624.00;;;;8401625;28;20194;-76
2023/12/01 05:51:37;;;;;;;36.47;16.07;;;;;2.20;94622.00;;;;8401152;28;20226;-76
2023/12/01 05:55:42;;;;;;;37.70;15.63;;;;;2.20;94628.00;;;;8401114;28;20194;-76
2023/12/01 05:59:46;;;;;;;38.97;16.33;;;;;2.10;94629.00;;;;8400931;28;20191;-77
2023/12/01 06:03:49;;;;;;;43.57;17.07;;;;;2.10;94637.00;;;;8401411;28;20224;-77
2023/12/01 06:07:54;;;;;;;42.57;16.37;;;;;2.10;94628.00;;;;8401889;28;20203;-76
2023/12/01 06:11:59;;;;;;;47.43;17.47;;;;;2.10;94633.00;;;;8400187;28;20219;-76
2023/12/01 06:16:02;;;;;;;36.90;15.77;;;;;2.00;94637.00;;;;8400443;28;20203;-76
2023/12/01 06:20:16;;;;;;;47.17;18.63;;;;;2.00;94638.00;;;;8401151;28;20288;-76
2023/12/01 06:24:23;;;;;;;36.07;15.23;;;;;2.00;94610.00;;;;8401419;28;20221;-76
2023/12/01 06:28:27;;;;;;;39.97;17.00;;;;;1.90;94620.00;;;;8400853;28;20296;-77
2023/12/01 06:32:31;;;;;;;38.20;15.80;;;;;1.90;94623.00;;;;8399782;28;20207;-77
2023/12/01 06:36:34;;;;;;;45.17;16.97;;;;;1.90;94641.00;;;;8400481;28;20203;-78
2023/12/01 06:40:37;;;;;;;37.70;16.40;;;;;2.00;94633.00;;;;8400019;28;20521;-77
2023/12/01 06:44:41;;;;;;;44.47;17.57;;;;;1.90;94631.00;;;;8399755;28;20202;-78
2023/12/01 06:48:44;;;;;;;49.00;19.30;;;;;1.90;94650.00;;;;8399314;28;20304;-77
2023/12/01 06:52:49;;;;;;;43.17;17.40;;;;;2.00;94645.00;;;;8399106;28;20578;-77
2023/12/01 06:56:52;;;;;;;47.37;17.93;;;;;2.00;94661.00;;;;8399303;28;20627;-79
2023/12/01 07:00:57;;;;;;;48.80;18.73;;;;;1.90;94658.00;;;;8398519;28;20289;-80
2023/12/01 07:05:01;;;;;;;48.80;18.43;;;;;1.90;94651.00;;;;8400050;28;20239;-78
2023/12/01 07:09:05;;;;;;;48.27;18.33;;;;;1.90;94644.00;;;;8397957;28;20221;-78
2023/12/01 07:13:09;;;;;;;51.63;18.93;;;;;1.90;94653.00;;;;8398212;28;20198;-79
2023/12/01 07:17:20;;;;;;;45.13;17.97;;;;;1.90;94659.00;;;;8396802;28;20199;-78
2023/12/01 07:21:27;;;;;;;52.13;18.40;;;;;1.90;94669.00;;;;8396218;28;20190;-78
2023/12/01 07:25:31;;;;;;;51.30;19.70;;;;;2.00;94692.00;;;;8398988;28;20202;-78
2023/12/01 07:29:34;;;;;;;58.20;21.47;;;;;2.00;94693.00;;;;8397291;28;20235;-78
2023/12/01 07:33:39;;;;;;;49.83;18.83;;;;;2.00;94689.00;;;;8394760;28;20251;-78
2023/12/01 07:37:42;;;;;;;47.17;18.63;;;;;2.00;94691.00;;;;8395863;28;20198;-78
2023/12/01 07:41:45;;;;;;;54.90;20.63;;;;;2.00;94679.00;;;;8397621;28;20633;-78
2023/12/01 07:45:49;;;;;;;58.13;21.20;;;;;2.10;94681.00;;;;8396694;28;20279;-78
2023/12/01 07:49:54;;;;;;;52.03;21.40;;;;;2.10;94684.00;;;;8397593;28;20599;-79
2023/12/01 07:53:57;;;;;;;60.90;22.17;;;;;2.10;94695.00;;;;8394588;28;20247;-78
2023/12/01 07:58:00;;;;;;;49.53;19.57;;;;;2.20;94693.00;;;;8396994;28;20223;-78
2023/12/01 08:02:04;;;;;;;54.20;21.33;;;;;2.30;94694.00;;;;8394891;28;20219;-79
2023/12/01 08:06:09;;;;;;;54.73;20.17;;;;;2.40;94704.00;;;;8397835;28;20540;-79
2023/12/01 08:10:14;;;;;;;49.00;18.90;;;;;2.50;94708.00;;;;8397084;28;20245;-79
2023/12/01 08:14:19;;;;;;;46.73;17.80;;;;;2.40;94695.00;;;;8397263;28;20186;-79
2023/12/01 08:18:23;;;;;;;53.80;18.47;;;;;2.40;94696.00;;;;8397876;28;20203;-78
2023/12/01 08:22:43;;;;;;;62.93;19.97;;;;;2.40;94707.00;;;;8403853;28;20295;-78
2023/12/01 08:26:47;;;;;;;51.97;18.63;;;;;2.60;94700.00;;;;8403184;28;20258;-78
2023/12/01 08:30:51;;;;;;;67.70;20.27;;;;;2.50;94693.00;;;;8401968;28;20313;-77
2023/12/01 08:34:54;;;;;;;52.13;17.90;;;;;2.50;94695.00;;;;8401404;28;20199;-80
2023/12/01 08:38:59;;;;;;;60.10;21.97;;;;;2.50;94694.00;;;;8402782;28;20257;-80
2023/12/01 08:43:04;;;;;;;53.43;19.23;;;;;2.50;94699.00;;;;8401516;28;20202;-79
2023/12/01 08:47:08;;;;;;;58.27;19.27;;;;;2.50;94698.00;;;;8385019;28;20191;-80
2023/12/01 08:51:12;;;;;;;56.27;20.40;;;;;2.60;94707.00;;;;8403015;28;20221;-79
2023/12/01 08:55:16;;;;;;;56.20;20.10;;;;;2.70;94705.00;;;;8403896;28;20229;-78
2023/12/01 08:59:19;;;;;;;51.63;16.53;;;;;2.70;94721.00;;;;8403224;28;20267;-78
2023/12/01 09:03:23;;;;;;;53.67;18.07;;;;;2.70;94731.00;;;;8402611;28;20258;-78
2023/12/01 09:07:26;;;;;;;47.67;17.93;;;;;2.80;94735.00;;;;8403397;28;20657;-79
2023/12/01 09:11:33;;;;;;;48.63;18.83;;;;;2.80;94734.00;;;;8401847;28;20548;-79
2023/12/01 09:15:39;;;;;;;52.83;21.47;;;;;2.90;94722.00;;;;8400853;28;20269;-79
2023/12/01 09:19:42;;;;;;;55.57;20.53;;;;;2.90;94751.00;;;;8402154;28;20223;-80
2023/12/01 09:23:46;;;;;;;53.80;19.83;;;;;3.00;94750.00;;;;8401720;28;20189;-79
2023/12/01 09:27:50;;;;;;;32.73;14.87;;;;;3.00;94748.00;;;;8384161;28;20206;-78
2023/12/01 09:31:54;;;;;;;50.17;18.67;;;;;2.90;94759.00;;;;8401277;28;20227;-80
2023/12/01 09:35:57;;;;;;;52.60;18.47;;;;;2.90;94760.00;;;;8400500;28;20229;-80
2023/12/01 09:40:03;;;;;;;55.60;18.30;;;;;2.80;94759.00;;;;8401002;28;20194;-79
2023/12/01 09:44:08;;;;;;;37.13;14.43;;;;;2.80;94743.00;;;;8401461;28;20194;-79
2023/12/01 09:48:20;;;;;;;50.33;18.23;;;;;2.70;94741.00;;;;8401008;28;20218;-78
2023/12/01 09:52:23;;;;;;;46.27;17.23;;;;;2.70;94743.00;;;;8401265;28;20212;-80
2023/12/01 09:56:27;;;;;;;43.13;17.03;;;;;2.70;94723.00;;;;8400585;28;20195;-79
2023/12/01 10:00:32;;;;;;;38.63;15.70;;;;;2.70;94724.00;;;;8401447;28;20218;-80
2023/12/01 10:04:36;;;;;;;48.73;19.07;;;;;2.70;94727.00;;;;8400090;28;20715;-78
2023/12/01 10:08:39;;;;;;;49.63;19.30;;;;;2.90;94727.00;;;;8400675;28;20207;-79
2023/12/01 10:12:54;;;;;;;31.53;14.20;;;;;3.00;94715.00;;;;8400975;28;20220;-80
2023/12/01 10:17:03;;;;;;;35.73;15.07;;;;;2.90;94715.00;;;;8400081;28;20180;-80
2023/12/01 10:21:07;;;;;;;32.60;14.33;;;;;2.80;94712.00;;;;8400461;28;20180;-79
2023/12/01 10:25:12;;;;;;;43.13;16.07;;;;;2.80;94702.00;;;;8400552;28;20245;-79
2023/12/01 10:29:29;;;;;;;24.40;9.70;;;;;2.80;94684.00;;;;8399316;28;20190;-78
2023/12/01 10:33:36;;;;;;;48.67;19.03;;;;;2.80;94682.00;;;;8400012;28;20222;-76
2023/12/01 10:37:39;;;;;;;38.23;15.77;;;;;2.80;94694.00;;;;8400841;28;20206;-77
2023/12/01 10:41:43;;;;;;;43.90;18.60;;;;;2.90;94692.00;;;;8399678;28;20200;-77
2023/12/01 10:45:47;;;;;;;33.00;14.37;;;;;2.90;94697.00;;;;8398978;28;20194;-76
2023/12/01 10:49:55;;;;;;;25.87;12.00;;;;;2.80;94715.00;;;;8399340;28;20203;-76
2023/12/01 10:54:00;;;;;;;30.80;14.67;;;;;2.80;94733.00;;;;8398670;28;20190;-77
2023/12/01 10:58:06;;;;;;;34.70;14.07;;;;;2.80;94729.00;;;;8399870;28;20234;-75
2023/12/01 11:02:12;;;;;;;41.37;18.70;;;;;2.80;94730.00;;;;8401702;28;20230;-78
2023/12/01 11:06:29;;;;;;;35.50;16.73;;;;;2.70;94701.00;;;;8398790;28;20219;-77
2023/12/01 11:10:45;;;;;;;45.27;18.50;;;;;2.70;94679.00;;;;8399434;28;20211;-77
2023/12/01 11:14:52;;;;;;;49.33;17.67;;;;;2.70;94670.00;;;;8399088;28;20215;-77
2023/12/01 11:18:57;;;;;;;48.23;18.33;;;;;2.80;94676.00;;;;8398834;28;20183;-78
2023/12/01 11:23:06;;;;;;;47.90;18.77;;;;;2.80;94672.00;;;;8399050;28;20249;-77
2023/12/01 11:27:10;;;;;;;41.00;17.57;;;;;2.90;94689.00;;;;8398898;28;20182;-78
2023/12/01 11:31:19;;;;;;;36.23;16.03;;;;;2.90;94702.00;;;;8398056;28;20225;-78
2023/12/01 11:35:23;;;;;;;39.30;16.27;;;;;3.00;94688.00;;;;8398628;28;20188;-76
2023/12/01 11:39:29;;;;;;;44.77;16.97;;;;;3.00;94673.00;;;;8397956;28;20189;-77
2023/12/01 11:44:03;;;;;;;31.27;13.80;;;;;2.80;94672.00;;;;8399163;28;20195;-78
2023/12/01 11:48:08;;;;;;;30.97;11.97;;;;;2.70;94678.00;;;;8398039;28;20188;-78
2023/12/01 11:52:14;;;;;;;23.40;9.67;;;;;2.70;94691.00;;;;8397573;28;20318;-77
2023/12/01 11:56:19;;;;;;;36.40;15.10;;;;;2.70;94685.00;;;;8379741;28;20580;-78
2023/12/01 12:00:25;;;;;;;33.70;13.67;;;;;2.70;94690.00;;;;8397415;28;20191;-79
2023/12/01 12:04:29;;;;;;;27.90;11.37;;;;;2.70;94660.00;;;;8398941;28;20226;-80
2023/12/01 12:08:34;;;;;;;32.43;13.07;;;;;2.70;94657.00;;;;8397301;28;20270;-83
2023/12/01 12:12:40;;;;;;;28.47;12.13;;;;;2.70;94649.00;;;;8396847;28;20258;-83
2023/12/01 12:16:44;;;;;;;22.47;9.20;;;;;2.70;94661.00;;;;8397520;28;20274;-83
2023/12/01 12:20:47;;;;;;;28.43;13.07;;;;;2.60;94659.00;;;;8398413;28;20200;-85
2023/12/01 12:24:50;;;;;;;24.43;12.30;;;;;2.60;94645.00;;;;8398246;28;20198;-85
2023/12/01 12:28:57;;;;;;;23.53;11.07;;;;;2.60;94638.00;;;;8397519;28;20196;-86
2023/12/01 12:33:01;;;;;;;33.93;13.77;;;;;2.70;94650.00;;;;8397971;28;20374;-84
2023/12/01 12:37:07;;;;;;;31.20;13.73;;;;;2.70;94658.00;;;;8396478;28;20307;-84
2023/12/01 12:41:24;;;;;;;54.87;21.30;;;;;2.70;94661.00;;;;8398000;28;20210;-83
2023/12/01 12:45:28;;;;;;;36.63;16.13;;;;;2.70;94659.00;;;;8396591;28;20196;-82
2023/12/01 12:49:32;;;;;;;42.23;17.27;;;;;2.70;94650.00;;;;8396118;28;20219;-81
2023/12/01 12:53:36;;;;;;;31.03;14.37;;;;;2.70;94645.00;;;;8396811;28;20219;-82
2023/12/01 12:57:39;;;;;;;27.27;12.13;;;;;2.70;94651.00;;;;8396061;28;20227;-79
2023/12/01 13:01:44;;;;;;;29.40;12.67;;;;;2.70;94648.00;;;;8396218;28;20708;-79
2023/12/01 13:05:47;;;;;;;34.27;14.67;;;;;2.70;94650.00;;;;8397635;28;20682;-83
2023/12/01 13:09:50;;;;;;;39.27;15.30;;;;;2.60;94657.00;;;;8401411;28;20210;-78
2023/12/01 13:13:59;;;;;;;35.50;15.40;;;;;2.60;94670.00;;;;8402773;28;20515;-78
2023/12/01 13:18:05;;;;;;;33.33;13.10;;;;;2.60;94690.00;;;;8401706;28;20203;-80
2023/12/01 13:22:13;;;;;;;36.27;14.63;;;;;2.60;94684.00;;;;8401350;28;20207;-79
2023/12/01 13:26:17;;;;;;;29.07;13.33;;;;;2.60;94694.00;;;;8399982;28;20579;-79
2023/12/01 13:30:21;;;;;;;34.40;14.80;;;;;2.60;94696.00;;;;8401070;28;20237;-78
2023/12/01 13:34:25;;;;;;;30.43;12.63;;;;;2.60;94696.00;;;;8401463;28;20673;-77
2023/12/01 13:38:28;;;;;;;35.33;14.57;;;;;2.60;94699.00;;;;8400310;28;20199;-77
2023/12/01 13:42:32;;;;;;;19.90;8.80;;;;;2.50;94705.00;;;;8401770;28;20193;-77
2023/12/01 13:46:37;;;;;;;36.10;15.83;;;;;2.50;94703.00;;;;8400286;28;20199;-78
2023/12/01 13:50:42;;;;;;;25.67;12.90;;;;;2.50;94706.00;;;;8401328;28;20181;-77
2023/12/01 13:54:45;;;;;;;31.87;13.97;;;;;2.40;94708.00;;;;8400085;28;20215;-77
2023/12/01 13:58:48;;;;;;;14.53;7.47;;;;;2.40;94694.00;;;;8399897;28;20231;-76
2023/12/01 14:02:52;;;;;;;35.07;13.93;;;;;2.40;94691.00;;;;8401010;28;20266;-77
2023/12/01 14:06:56;;;;;;;22.13;10.53;;;;;2.40;94680.00;;;;8400252;28;20204;-77
2023/12/01 14:11:00;;;;;;;21.90;10.33;;;;;2.40;94681.00;;;;8401050;28;20510;-77
2023/12/01 14:15:03;;;;;;;38.43;15.00;;;;;2.30;94674.00;;;;8400213;28;20190;-76
2023/12/01 14:19:07;;;;;;;24.33;10.87;;;;;2.30;94678.00;;;;8399663;28;20234;-76
2023/12/01 14:23:11;;;;;;;13.63;7.53;;;;;2.30;94688.00;;;;8400946;28;20226;-77
2023/12/01 14:27:15;;;;;;;10.43;5.30;;;;;2.20;94689.00;;;;8399868;28;20194;-77
2023/12/01 14:31:18;;;;;;;12.53;7.57;;;;;2.20;94693.00;;;;8400371;28;20217;-77
2023/12/01 14:35:21;;;;;;;16.50;8.27;;;;;2.10;94695.00;;;;8399992;28;20239;-78
2023/12/01 14:39:27;;;;;;;28.40;12.20;;;;;2.00;94681.00;;;;8399085;28;20198;-77
2023/12/01 14:43:30;;;;;;;14.97;7.67;;;;;2.00;94684.00;;;;8401200;28;20200;-77
2023/12/01 14:47:34;;;;;;;28.13;12.53;;;;;2.00;94694.00;;;;8400352;28;20228;-76
2023/12/01 14:51:37;;;;;;;20.37;8.50;;;;;2.00;94700.00;;;;8400162;28;20275;-77
2023/12/01 14:55:41;;;;;;;8.37;5.63;;;;;2.00;94702.00;;;;8399774;28;20214;-77
2023/12/01 14:59:46;;;;;;;14.50;6.73;;;;;2.00;94712.00;;;;8400038;28;20211;-77
2023/12/01 15:03:49;;;;;;;19.17;9.97;;;;;2.00;94702.00;;;;8399206;28;20668;-77
2023/12/01 15:07:59;;;;;;;19.57;8.90;;;;;2.00;94703.00;;;;8399419;28;20197;-78
2023/12/01 15:12:05;;;;;;;13.33;7.93;;;;;2.00;94706.00;;;;8398950;28;20231;-78
2023/12/01 15:16:09;;;;;;;9.13;5.63;;;;;2.00;94712.00;;;;8398714;28;20188;-78
2023/12/01 15:20:12;;;;;;;12.30;7.37;;;;;2.00;94709.00;;;;8398898;28;20380;-78
2023/12/01 15:24:16;;;;;;;8.60;5.40;;;;;2.00;94717.00;;;;8398407;28;20229;-77
2023/12/01 15:28:21;;;;;;;7.73;4.67;;;;;1.90;94728.00;;;;8398179;28;20189;-77
2023/12/01 15:32:24;;;;;;;19.63;7.67;;;;;1.80;94719.00;;;;8400455;28;20548;-77
2023/12/01 15:36:28;;;;;;;16.07;9.73;;;;;1.90;94738.00;;;;8397330;28;20280;-78
2023/12/01 15:40:31;;;;;;;17.50;9.23;;;;;1.90;94742.00;;;;8398604;28;20636;-78
2023/12/01 15:44:36;;;;;;;15.53;7.40;;;;;1.80;94735.00;;;;8399090;28;20197;-78
2023/12/01 15:48:39;;;;;;;10.30;5.60;;;;;1.80;94730.00;;;;8396603;28;20197;-78
2023/12/01 15:52:47;;;;;;;16.10;7.73;;;;;1.80;94742.00;;;;8395948;28;20654;-78
2023/12/01 15:56:51;;;;;;;9.10;4.47;;;;;1.80;94736.00;;;;8398252;28;20229;-79
2023/12/01 16:00:55;;;;;;;17.57;7.37;;;;;1.70;94730.00;;;;8396456;28;20200;-78
2023/12/01 16:04:58;;;;;;;14.90;6.43;;;;;1.70;94737.00;;;;8398351;28;20230;-79
2023/12/01 16:09:02;;;;;;;11.50;5.57;;;;;1.70;94730.00;;;;8398923;28;20225;-79
2023/12/01 16:13:07;;;;;;;7.30;5.13;;;;;1.80;94728.00;;;;8397702;28;20225;-76
2023/12/01 16:17:11;;;;;;;6.03;2.97;;;;;1.70;94729.00;;;;8397736;28;20217;-77
2023/12/01 16:21:20;;;;;;;10.70;5.60;;;;;1.70;94729.00;;;;8398390;28;20244;-77
2023/12/01 16:25:23;;;;;;;14.53;7.70;;;;;1.70;94736.00;;;;8395488;28;20240;-76
2023/12/01 16:29:26;;;;;;;4.57;2.87;;;;;1.70;94729.00;;;;8393829;28;20230;-78
2023/12/01 16:33:31;;;;;;;5.23;3.53;;;;;1.70;94722.00;;;;8395503;28;20268;-76
2023/12/01 16:37:34;;;;;;;4.27;2.93;;;;;1.70;94722.00;;;;8395013;28;20193;-77
2023/12/01 16:41:41;;;;;;;11.37;5.53;;;;;1.60;94728.00;;;;8400089;28;20331;-77
2023/12/01 16:45:44;;;;;;;5.30;3.30;;;;;1.70;94736.00;;;;8402016;28;20207;-78
2023/12/01 16:49:52;;;;;;;11.00;5.20;;;;;1.60;94747.00;;;;8403972;28;20195;-78
2023/12/01 16:53:55;;;;;;;13.47;6.77;;;;;1.60;94739.00;;;;8403365;28;20322;-77
2023/12/01 16:57:58;;;;;;;4.50;3.77;;;;;1.60;94724.00;;;;8402919;28;20264;-77
2023/12/01 17:02:06;;;;;;;5.67;2.87;;;;;1.60;94743.00;;;;8402771;28;20219;-77
2023/12/01 17:06:11;;;;;;;5.83;3.07;;;;;1.60;94737.00;;;;8403665;28;20192;-79
2023/12/01 17:10:14;;;;;;;6.17;3.40;;;;;1.60;94736.00;;;;8403191;28;20197;-77
2023/12/01 17:14:18;;;;;;;7.30;3.73;;;;;1.60;94737.00;;;;8404511;28;20264;-77
2023/12/01 17:18:33;;;;;;;12.83;6.27;;;;;1.50;94731.00;;;;8402182;28;20231;-77
2023/12/01 17:22:39;;;;;;;11.30;5.93;;;;;1.50;94735.00;;;;8403926;28;20340;-77
2023/12/01 17:26:44;;;;;;;7.93;4.13;;;;;1.50;94732.00;;;;8402636;28;20233;-77
2023/12/01 17:30:47;;;;;;;5.93;2.53;;;;;1.50;94724.00;;;;8402393;28;20191;-78
2023/12/01 17:34:50;;;;;;;11.20;4.90;;;;;1.50;94729.00;;;;8401363;28;20316;-80
2023/12/01 17:38:55;;;;;;;13.17;6.80;;;;;1.50;94735.00;;;;8401852;28;20231;-79
2023/12/01 17:42:58;;;;;;;5.80;3.00;;;;;1.60;94734.00;;;;8402669;28;20190;-79
2023/12/01 17:47:01;;;;;;;3.40;3.03;;;;;1.60;94744.00;;;;8402419;28;20202;-77
2023/12/01 17:51:05;;;;;;;8.90;4.67;;;;;1.50;94734.00;;;;8401826;28;20204;-80
2023/12/01 17:55:10;;;;;;;10.20;4.33;;;;;1.60;94724.00;;;;8401119;28;20556;-79
2023/12/01 17:59:15;;;;;;;4.97;3.17;;;;;1.60;94707.00;;;;8401647;28;20195;-84
2023/12/01 18:03:20;;;;;;;4.27;3.83;;;;;1.50;94709.00;;;;8401873;28;20676;-86
2023/12/01 18:07:23;;;;;;;17.87;7.87;;;;;1.50;94709.00;;;;8401768;28;20190;-87
2023/12/01 18:11:27;;;;;;;13.43;5.77;;;;;1.60;94700.00;;;;8401760;28;20235;-85
2023/12/01 18:15:31;;;;;;;6.70;4.20;;;;;1.50;94712.00;;;;8401536;28;20572;-87
2023/12/01 18:19:34;;;;;;;21.50;9.27;;;;;1.40;94725.00;;;;8401720;28;20192;-88
2023/12/01 18:23:38;;;;;;;19.27;7.80;;;;;1.50;94722.00;;;;8405288;28;20227;-88
2023/12/01 18:27:42;;;;;;;6.27;4.70;;;;;1.50;94713.00;;;;8409805;28;20636;-87
2023/12/01 18:31:45;;;;;;;8.63;3.67;;;;;1.40;94709.00;;;;8406940;28;20202;-88
2023/12/01 18:35:49;;;;;;;15.90;7.67;;;;;1.40;94720.00;;;;8401198;28;20236;-86
2023/12/01 18:39:52;;;;;;;3.33;3.03;;;;;1.40;94726.00;;;;8400498;28;20515;-86
2023/12/01 18:43:57;;;;;;;15.97;6.77;;;;;1.40;94720.00;;;;8399297;28;20272;-81
2023/12/01 18:48:00;;;;;;;5.57;3.77;;;;;1.40;94719.00;;;;8400134;28;20227;-83
2023/12/01 18:52:03;;;;;;;16.50;8.30;;;;;1.40;94713.00;;;;8399087;28;20195;-82
2023/12/01 18:56:08;;;;;;;6.53;4.53;;;;;1.40;94725.00;;;;8399847;28;20578;-83
2023/12/01 19:00:15;;;;;;;10.30;5.23;;;;;1.40;94723.00;;;;8399712;28;20194;-81
2023/12/01 19:04:18;;;;;;;6.40;4.47;;;;;1.40;94728.00;;;;8398195;28;20231;-83
2023/12/01 19:08:21;;;;;;;10.30;4.83;;;;;1.30;94725.00;;;;8399268;28;20199;-82
2023/12/01 19:12:24;;;;;;;4.23;3.63;;;;;1.30;94729.00;;;;8398875;28;20236;-82
2023/12/01 19:16:29;;;;;;;16.87;7.17;;;;;1.30;94734.00;;;;8398432;28;20227;-83
2023/12/01 19:20:32;;;;;;;7.43;4.63;;;;;1.30;94733.00;;;;8399897;28;20636;-84
2023/12/01 19:24:35;;;;;;;13.53;6.03;;;;;1.30;94721.00;;;;8397728;28;20282;-84
2023/12/01 19:28:38;;;;;;;11.20;4.97;;;;;1.20;94731.00;;;;8399344;28;20584;-85
2023/12/01 19:32:43;;;;;;;8.83;4.40;;;;;1.20;94731.00;;;;8398499;28;20226;-85
2023/12/01 19:36:46;;;;;;;5.03;3.73;;;;;1.30;94721.00;;;;8397947;28;20221;-84
2023/12/01 19:40:49;;;;;;;6.57;4.07;;;;;1.20;94724.00;;;;8397403;28;20197;-79
2023/12/01 19:44:53;;;;;;;9.17;4.27;;;;;1.20;94722.00;;;;8402770;28;20521;-84
2023/12/01 19:48:57;;;;;;;11.57;5.13;;;;;1.20;94732.00;;;;8399582;28;20602;-85
2023/12/01 19:53:01;;;;;;;16.43;5.90;;;;;1.20;94736.00;;;;8397408;28;20199;-84
2023/12/01 19:57:05;;;;;;;6.07;3.53;;;;;1.20;94745.00;;;;8399010;28;20267;-85
2023/12/01 20:01:09;;;;;;;4.20;2.63;;;;;1.20;94752.00;;;;8398349;28;20582;-86
2023/12/01 20:05:14;;;;;;;15.40;7.37;;;;;1.10;94751.00;;;;8398025;28;20675;-87
2023/12/01 20:09:18;;;;;;;12.70;5.43;;;;;1.10;94740.00;;;;8398234;28;20223;-86
2023/12/01 20:13:21;;;;;;;7.67;4.37;;;;;1.10;94735.00;;;;8399145;28;20705;-87
2023/12/01 20:17:24;;;;;;;10.70;5.40;;;;;1.10;94731.00;;;;8398327;28;20204;-85